createdAt,value
2022-08-17T00:01:24.124Z,3.97
2022-08-17T00:04:29.129Z,4.35
2022-08-17T00:07:31.196Z,4.30
2022-08-17T00:10:33.395Z,3.42
2022-08-17T00:13:37.295Z,3.73
2022-08-17T00:16:55.598Z,4.07
2022-08-17T00:20:00.223Z,4.32
2022-08-17T00:23:12.726Z,4.55
2022-08-17T00:26:16.171Z,4.10
2022-08-17T00:29:38.342Z,4.70
2022-08-17T00:33:15.777Z,4.37
2022-08-17T00:36:06.235Z,5.82
2022-08-17T00:39:08.232Z,4.72
2022-08-17T00:42:18.211Z,5.18
2022-08-17T00:45:20.488Z,4.83
2022-08-17T00:48:29.547Z,4.80
2022-08-17T00:51:38.909Z,5.15
2022-08-17T00:54:42.530Z,4.53
2022-08-17T00:57:46.023Z,4.72
2022-08-17T01:00:48.281Z,5.03
2022-08-17T01:03:53.888Z,4.60
2022-08-17T01:07:03.448Z,5.80
2022-08-17T01:10:08.409Z,5.05
2022-08-17T01:13:35.497Z,4.82
2022-08-17T01:16:41.773Z,5.07
2022-08-17T01:19:44.001Z,6.00
2022-08-17T01:22:46.150Z,5.30
2022-08-17T01:25:50.852Z,4.82
2022-08-17T01:28:55.495Z,4.80
2022-08-17T01:32:00.120Z,4.57
2022-08-17T01:35:02.228Z,4.53
2022-08-17T01:38:04.476Z,5.38
2022-08-17T01:41:12.523Z,4.97
2022-08-17T01:44:15.800Z,4.20
2022-08-17T01:47:17.990Z,4.97
2022-08-17T01:50:22.055Z,4.40
2022-08-17T01:53:29.755Z,4.85
2022-08-17T01:56:32.768Z,5.43
2022-08-17T01:59:34.835Z,5.07
2022-08-17T02:02:36.950Z,4.80
2022-08-17T02:05:39.925Z,4.83
2022-08-17T02:09:01.585Z,4.88
2022-08-17T02:12:37.366Z,5.07
2022-08-17T02:15:26.803Z,4.57
2022-08-17T02:18:29.036Z,5.23
2022-08-17T02:21:32.510Z,5.10
2022-08-17T02:25:00.858Z,5.25
2022-08-17T02:27:57.668Z,5.20
2022-08-17T02:31:04.351Z,5.40
2022-08-17T02:34:06.528Z,6.13
2022-08-17T02:37:08.798Z,6.03
2022-08-17T02:40:11.112Z,5.90
2022-08-17T02:43:13.766Z,5.47
2022-08-17T02:46:15.793Z,5.97
2022-08-17T02:49:17.781Z,5.77
2022-08-17T02:52:19.789Z,5.80
2022-08-17T02:55:42.783Z,6.05
2022-08-17T02:58:44.951Z,5.95
2022-08-17T03:01:47.051Z,5.97
2022-08-17T03:04:49.198Z,6.17
2022-08-17T03:07:51.599Z,5.73
2022-08-17T03:10:53.777Z,5.88
2022-08-17T03:13:55.945Z,6.28
2022-08-17T03:16:58.175Z,5.28
2022-08-17T03:20:00.758Z,6.13
2022-08-17T03:23:03.461Z,6.10
2022-08-17T03:26:05.660Z,6.28
2022-08-17T03:29:18.939Z,6.25
2022-08-17T03:32:21.080Z,6.10
2022-08-17T03:35:24.877Z,6.53
2022-08-17T03:38:26.978Z,6.10
2022-08-17T03:41:29.003Z,6.50
2022-08-17T03:44:31.003Z,7.68
2022-08-17T03:47:51.564Z,7.30
2022-08-17T03:51:14.787Z,6.30
2022-08-17T03:54:35.677Z,5.40
2022-08-17T03:57:37.813Z,5.43
2022-08-17T04:00:40.568Z,5.45
2022-08-17T04:03:42.638Z,4.72
2022-08-17T04:06:44.712Z,5.20
2022-08-17T04:09:46.720Z,5.27
2022-08-17T04:12:55.317Z,4.57
2022-08-17T04:15:59.975Z,4.90
2022-08-17T04:19:02.529Z,6.10
2022-08-17T04:22:05.788Z,6.10
2022-08-17T04:25:09.774Z,5.93
2022-08-17T04:28:15.641Z,5.80
2022-08-17T04:31:18.397Z,6.18
2022-08-17T04:34:20.587Z,6.25
2022-08-17T04:37:22.643Z,6.77
2022-08-17T04:40:45.130Z,5.90
2022-08-17T04:43:47.826Z,6.03
2022-08-17T04:46:49.832Z,7.28
2022-08-17T04:49:53.537Z,7.10
2022-08-17T04:52:56.040Z,6.57
2022-08-17T04:55:59.155Z,6.77
2022-08-17T04:59:02.741Z,6.80
2022-08-17T05:02:04.832Z,5.95
2022-08-17T05:05:07.004Z,5.70
2022-08-17T05:08:09.539Z,5.57
2022-08-17T05:11:11.600Z,5.37
2022-08-17T05:14:13.906Z,6.00
2022-08-17T05:17:15.903Z,5.85
2022-08-17T05:20:18.003Z,5.78
2022-08-17T05:23:20.684Z,5.70
2022-08-17T05:26:26.757Z,5.33
2022-08-17T05:29:35.159Z,5.00
2022-08-17T05:32:40.294Z,5.50
2022-08-17T05:35:44.442Z,7.15
2022-08-17T05:38:46.484Z,5.43
2022-08-17T05:41:48.653Z,5.20
2022-08-17T05:44:50.670Z,5.57
2022-08-17T05:47:52.686Z,5.53
2022-08-17T05:51:06.138Z,6.50
2022-08-17T05:54:23.185Z,5.40
2022-08-17T05:57:27.986Z,5.87
2022-08-17T06:00:50.822Z,6.32
2022-08-17T06:04:08.239Z,6.28
2022-08-17T06:07:16.487Z,6.47
2022-08-17T06:10:27.611Z,6.07
2022-08-17T06:13:41.497Z,5.30
2022-08-17T06:16:46.267Z,5.95
2022-08-17T06:19:54.634Z,7.60
2022-08-17T06:23:08.921Z,7.18
2022-08-17T06:26:25.880Z,6.50
2022-08-17T06:29:35.440Z,6.40
2022-08-17T06:32:42.009Z,6.32
2022-08-17T06:35:50.046Z,6.10
2022-08-17T06:39:03.991Z,5.80
2022-08-17T06:42:55.124Z,6.23
2022-08-17T06:45:56.362Z,7.37
2022-08-17T06:49:07.969Z,6.65
2022-08-17T06:52:46.860Z,5.82
2022-08-17T06:55:58.281Z,6.53
2022-08-17T06:59:01.735Z,6.47
2022-08-17T07:02:05.670Z,5.90
2022-08-17T07:05:08.644Z,7.07
2022-08-17T07:08:16.718Z,6.15
2022-08-17T07:11:39.797Z,6.35
2022-08-17T07:14:59.759Z,6.17
2022-08-17T07:18:02.744Z,6.40
2022-08-17T07:21:10.304Z,6.53
2022-08-17T07:24:29.244Z,6.30
2022-08-17T07:27:35.471Z,6.43
2022-08-17T07:30:50.974Z,6.20
2022-08-17T07:34:19.181Z,5.93
2022-08-17T07:37:21.158Z,6.72
2022-08-17T07:40:23.200Z,6.10
2022-08-17T07:43:27.699Z,7.18
2022-08-17T07:46:54.403Z,6.13
2022-08-17T07:49:56.646Z,6.77
2022-08-17T07:53:10.144Z,6.55
2022-08-17T07:56:34.413Z,6.28
2022-08-17T07:59:38.051Z,6.60
2022-08-17T08:02:45.545Z,6.80
2022-08-17T08:05:50.536Z,5.60
2022-08-17T08:08:55.442Z,6.82
2022-08-17T08:11:57.446Z,6.18
2022-08-17T08:15:09.336Z,6.85
2022-08-17T08:18:55.065Z,6.27
2022-08-17T08:21:51.336Z,5.77
2022-08-17T08:25:22.581Z,6.40
2022-08-17T08:28:38.653Z,5.93
2022-08-17T08:31:59.330Z,5.93
2022-08-17T08:35:03.576Z,6.10
2022-08-17T08:38:10.795Z,6.03
2022-08-17T08:41:21.716Z,6.35
2022-08-17T08:45:00.718Z,5.75
2022-08-17T08:48:05.924Z,5.72
2022-08-17T08:51:35.399Z,5.83
2022-08-17T08:54:56.019Z,6.13
2022-08-17T08:58:03.926Z,5.57
2022-08-17T09:01:16.753Z,5.72
2022-08-17T09:04:55.912Z,5.55
2022-08-17T09:08:03.355Z,5.67
2022-08-17T09:11:05.452Z,5.83
2022-08-17T09:14:21.272Z,6.00
2022-08-17T09:17:39.784Z,5.28
2022-08-17T09:20:50.241Z,6.10
2022-08-17T09:24:06.229Z,6.10
2022-08-17T09:27:10.846Z,6.20
2022-08-17T09:30:13.413Z,5.88
2022-08-17T09:33:17.725Z,5.72
2022-08-17T09:36:29.513Z,6.00
2022-08-17T09:39:41.983Z,5.50
2022-08-17T09:43:01.001Z,5.67
2022-08-17T09:46:11.374Z,6.07
2022-08-17T09:49:25.022Z,5.10
2022-08-17T09:52:28.723Z,5.18
2022-08-17T09:55:41.756Z,5.40
2022-08-17T09:59:02.423Z,6.17
2022-08-17T10:02:23.320Z,5.25
2022-08-17T10:05:46.470Z,5.25
2022-08-17T10:08:57.332Z,5.93
2022-08-17T10:12:29.926Z,5.30
2022-08-17T10:15:36.691Z,5.37
2022-08-17T10:18:44.542Z,5.30
2022-08-17T10:22:32.427Z,5.05
2022-08-17T10:25:54.983Z,5.95
2022-08-17T10:29:13.590Z,4.93
2022-08-17T10:32:21.524Z,4.77
2022-08-17T10:35:41.991Z,5.00
2022-08-17T10:38:48.365Z,5.00
2022-08-17T10:41:53.130Z,4.63
2022-08-17T10:45:00.525Z,4.70
2022-08-17T10:48:22.493Z,6.27
2022-08-17T10:51:33.743Z,5.38
2022-08-17T10:54:47.357Z,4.97
2022-08-17T10:57:50.311Z,4.90
2022-08-17T11:00:53.475Z,4.40
2022-08-17T11:03:56.769Z,4.73
2022-08-17T11:07:02.115Z,4.55
2022-08-17T11:10:23.804Z,4.50
2022-08-17T11:13:35.489Z,4.95
2022-08-17T11:16:37.828Z,5.00
2022-08-17T11:19:46.279Z,5.23
2022-08-17T11:23:07.452Z,4.82
2022-08-17T11:26:26.172Z,4.28
2022-08-17T11:29:31.401Z,4.30
2022-08-17T11:32:47.123Z,5.17
2022-08-17T11:35:52.735Z,4.20
2022-08-17T11:39:13.342Z,4.70
2022-08-17T11:42:16.538Z,4.53
2022-08-17T11:45:31.709Z,3.58
2022-08-17T11:48:59.431Z,3.70
2022-08-17T11:52:01.613Z,3.43
2022-08-17T11:55:31.813Z,4.45
2022-08-17T11:58:29.950Z,3.88
2022-08-17T12:01:31.962Z,4.43
2022-08-17T12:04:35.146Z,3.73
2022-08-17T12:07:41.749Z,3.90
2022-08-17T12:10:56.117Z,4.45
2022-08-17T12:13:59.086Z,3.60
2022-08-17T12:17:09.446Z,3.50
2022-08-17T12:20:11.638Z,3.93
2022-08-17T12:23:24.371Z,3.70
2022-08-17T12:26:30.486Z,4.13
2022-08-17T12:29:38.377Z,3.92
2022-08-17T12:32:41.714Z,3.78
2022-08-17T12:35:45.134Z,4.20
2022-08-17T12:39:13.944Z,4.30
2022-08-17T12:42:31.419Z,3.83
2022-08-17T12:45:33.681Z,5.10
2022-08-17T12:48:36.852Z,4.10
2022-08-17T12:51:42.279Z,4.13
2022-08-17T12:54:50.653Z,4.23
2022-08-17T12:57:54.333Z,4.25
2022-08-17T13:01:05.438Z,4.15
2022-08-17T13:04:07.565Z,4.50
2022-08-17T13:07:09.585Z,4.53
2022-08-17T13:10:19.922Z,4.80
2022-08-17T13:13:42.358Z,4.53
2022-08-17T13:16:52.562Z,5.03
2022-08-17T13:19:54.725Z,4.30
2022-08-17T13:22:58.206Z,4.30
2022-08-17T13:26:03.656Z,4.67
2022-08-17T13:29:07.707Z,5.05
2022-08-17T13:32:12.985Z,4.20
2022-08-17T13:35:32.829Z,4.38
2022-08-17T13:38:49.535Z,4.27
2022-08-17T13:41:53.507Z,3.50
2022-08-17T13:44:55.759Z,4.30
2022-08-17T13:48:15.986Z,4.32
2022-08-17T13:51:23.337Z,4.07
2022-08-17T13:54:33.536Z,4.03
2022-08-17T13:57:36.051Z,4.17
2022-08-17T14:00:39.443Z,4.22
2022-08-17T14:03:41.502Z,4.47
2022-08-17T14:06:53.005Z,5.10
2022-08-17T14:09:58.498Z,3.73
2022-08-17T14:13:00.554Z,4.10
2022-08-17T14:16:02.766Z,4.00
2022-08-17T14:19:05.976Z,3.78
2022-08-17T14:22:11.660Z,4.00
2022-08-17T14:25:15.023Z,3.50
2022-08-17T14:28:17.163Z,3.87
2022-08-17T14:31:19.320Z,3.75
2022-08-17T14:34:22.116Z,4.03
2022-08-17T14:37:26.388Z,4.20
2022-08-17T14:40:29.301Z,4.20
2022-08-17T14:43:35.318Z,3.30
2022-08-17T14:46:37.407Z,4.20
2022-08-17T14:49:39.440Z,3.20
2022-08-17T14:52:42.252Z,3.75
2022-08-17T14:55:47.127Z,3.50
2022-08-17T14:58:49.474Z,3.83
2022-08-17T15:01:52.561Z,3.70
2022-08-17T15:04:58.045Z,3.45
2022-08-17T15:08:01.191Z,3.40
2022-08-17T15:11:03.631Z,3.80
2022-08-17T15:14:06.271Z,3.70
2022-08-17T15:17:08.336Z,3.35
2022-08-17T15:20:14.770Z,4.35
2022-08-17T15:23:18.907Z,3.78
2022-08-17T15:26:26.060Z,3.20
2022-08-17T15:29:29.263Z,3.47
2022-08-17T15:32:32.473Z,3.85
2022-08-17T15:35:34.634Z,3.30
2022-08-17T15:38:39.300Z,3.45
2022-08-17T15:41:41.327Z,3.17
2022-08-17T15:44:44.625Z,3.30
2022-08-17T15:47:46.707Z,3.35
2022-08-17T15:50:48.736Z,3.58
2022-08-17T15:53:53.596Z,3.50
2022-08-17T15:56:55.586Z,3.93
2022-08-17T15:59:58.760Z,3.63
2022-08-17T16:03:45.549Z,3.85
2022-08-17T16:06:24.107Z,3.22
2022-08-17T16:09:26.076Z,3.70
2022-08-17T16:12:28.267Z,4.00
2022-08-17T16:15:32.981Z,3.77
2022-08-17T16:18:36.494Z,3.80
2022-08-17T16:21:43.132Z,4.00
2022-08-17T16:24:56.797Z,4.30
2022-08-17T16:28:00.041Z,4.20
2022-08-17T16:31:02.075Z,3.50
2022-08-17T16:34:16.796Z,3.97
2022-08-17T16:37:20.602Z,3.92
2022-08-17T16:40:24.260Z,3.88
2022-08-17T16:43:26.319Z,3.70
2022-08-17T16:46:29.324Z,4.00
2022-08-17T16:49:37.319Z,4.55
2022-08-17T16:52:40.756Z,3.95
2022-08-17T16:55:43.288Z,4.20
2022-08-17T16:58:45.796Z,4.50
2022-08-17T17:01:47.888Z,3.83
2022-08-17T17:04:56.366Z,4.28
2022-08-17T17:08:04.053Z,4.10
2022-08-17T17:11:10.981Z,4.68
2022-08-17T17:14:20.290Z,4.60
2022-08-17T17:17:28.521Z,4.10
2022-08-17T17:20:33.335Z,4.32
2022-08-17T17:23:44.325Z,4.03
2022-08-17T17:26:55.418Z,4.78
2022-08-17T17:30:00.595Z,4.50
2022-08-17T17:33:23.475Z,3.97
2022-08-17T17:36:28.238Z,4.20
2022-08-17T17:39:51.537Z,4.15
2022-08-17T17:42:55.190Z,4.30
2022-08-17T17:46:27.871Z,4.00
2022-08-17T17:49:36.130Z,3.90
2022-08-17T17:52:45.412Z,4.40
2022-08-17T17:56:39.196Z,4.13
2022-08-17T18:00:00.505Z,4.38
2022-08-17T18:03:21.179Z,4.50
2022-08-17T18:06:29.093Z,4.30
2022-08-17T18:09:50.985Z,4.85
2022-08-17T18:13:11.535Z,4.20
2022-08-17T18:16:14.236Z,4.53
2022-08-17T18:19:20.135Z,4.27
2022-08-17T18:22:23.262Z,4.23
2022-08-17T18:25:45.018Z,4.43
2022-08-17T18:28:50.438Z,4.70
2022-08-17T18:32:11.162Z,4.13
2022-08-17T18:35:15.741Z,4.27
2022-08-17T18:38:23.240Z,4.73
2022-08-17T18:41:30.549Z,4.38
2022-08-17T18:44:35.627Z,4.55
2022-08-17T18:47:51.514Z,4.07
2022-08-17T18:50:55.661Z,4.50
2022-08-17T18:54:13.615Z,4.97
2022-08-17T18:57:27.937Z,5.60
2022-08-17T19:00:29.952Z,4.95
2022-08-17T19:03:42.202Z,4.82
2022-08-17T19:06:44.395Z,4.87
2022-08-17T19:09:48.647Z,5.50
2022-08-17T19:13:24.414Z,6.22
2022-08-17T19:16:26.894Z,6.28
2022-08-17T19:19:28.955Z,6.35
2022-08-17T19:22:49.916Z,5.90
2022-08-17T19:25:53.812Z,5.40
2022-08-17T19:29:02.294Z,4.97
2022-08-17T19:32:06.545Z,4.70
2022-08-17T19:35:16.685Z,5.18
2022-08-17T19:38:38.272Z,5.00
2022-08-17T19:41:43.811Z,4.80
2022-08-17T19:44:48.873Z,5.30
2022-08-17T19:48:00.565Z,5.43
2022-08-17T19:51:34.300Z,5.50
2022-08-17T19:54:55.518Z,4.93
2022-08-17T19:58:10.124Z,4.50
2022-08-17T20:01:14.045Z,4.57
2022-08-17T20:04:37.349Z,3.92
2022-08-17T20:07:57.587Z,4.90
2022-08-17T20:11:03.159Z,4.10
2022-08-17T20:14:09.845Z,4.07
2022-08-17T20:17:12.357Z,4.22
2022-08-17T20:20:19.942Z,4.28
2022-08-17T20:23:45.231Z,4.35
2022-08-17T20:26:57.206Z,4.20
2022-08-17T20:30:00.880Z,4.47
2022-08-17T20:33:04.315Z,4.30
2022-08-17T20:36:12.352Z,4.65
2022-08-17T20:39:30.268Z,4.53
2022-08-17T20:42:36.169Z,3.60
2022-08-17T20:45:41.274Z,4.97
2022-08-17T20:48:48.579Z,4.50
2022-08-17T20:52:02.541Z,3.63
2022-08-17T20:55:04.927Z,4.60
2022-08-17T20:58:15.896Z,4.03
2022-08-17T21:01:31.937Z,3.93
2022-08-17T21:04:52.925Z,4.10
2022-08-17T21:07:58.063Z,3.95
2022-08-17T21:11:15.032Z,4.53
2022-08-17T21:14:21.042Z,4.23
2022-08-17T21:17:31.226Z,4.40
2022-08-17T21:20:47.257Z,4.57
2022-08-17T21:23:49.223Z,4.70
2022-08-17T21:27:05.405Z,3.70
2022-08-17T21:30:09.998Z,4.20
2022-08-17T21:33:20.536Z,4.43
2022-08-17T21:36:23.963Z,3.70
2022-08-17T21:39:39.566Z,4.45
2022-08-17T21:42:47.801Z,4.68
2022-08-17T21:46:00.772Z,4.57
2022-08-17T21:49:13.491Z,4.87
2022-08-17T21:52:17.857Z,4.97
2022-08-17T21:55:28.363Z,4.53
2022-08-17T21:58:32.305Z,4.50
2022-08-17T22:01:39.387Z,4.57
2022-08-17T22:09:27.025Z,4.50
2022-08-17T22:12:30.047Z,4.55
